Bivalve, New Jersey
Current Conditions -  °F | °C
As of 2:54 PM on Thursday 29 Jan 2015 (Local Time) from KMIV Reporting Station
Clear Clear  
Wind Chill: 28°   Ceiling: Unl
Heat Index: 33°   Visibility: 10mi
Dew Point: 16°   Wind: 6mph
Humidity: 50%   Direction: 180°S
Pressure: 30.17"   Gusts: NA
Location:  39.2511°N, 75.0885°W
Report Text: KMIV 291954Z AUTO 18005KT 10SM CLR 01/M09 A3017 RMK AO2 SLP218 T00061089
Loading
Personal Weather Stations






























Interactive Weather Map New forecast layout! Learn more

10-Day Weather Forecast

Advertisements
Track Severe Weather on mobile